sensor_id;sensor_type;location;lat;lon;timestamp;P1;durP1;ratioP1;P2;durP2;ratioP2
45041;SDS011;30779;52.096;4.410;2023-02-15T00:02:21;84.22;;;43.42;;
45041;SDS011;30779;52.096;4.410;2023-02-15T00:05:24;87.93;;;43.88;;
45041;SDS011;30779;52.096;4.410;2023-02-15T00:08:25;75.22;;;42.45;;
45041;SDS011;30779;52.096;4.410;2023-02-15T00:11:26;80.10;;;44.55;;
45041;SDS011;30779;52.096;4.410;2023-02-15T00:14:39;73.38;;;42.42;;
45041;SDS011;30779;52.096;4.410;2023-02-15T00:17:40;76.95;;;42.47;;
45041;SDS011;30779;52.096;4.410;2023-02-15T00:20:41;80.60;;;42.60;;
45041;SDS011;30779;52.096;4.410;2023-02-15T00:23:42;80.55;;;40.85;;
45041;SDS011;30779;52.096;4.410;2023-02-15T00:26:43;73.28;;;38.78;;
45041;SDS011;30779;52.096;4.410;2023-02-15T00:29:46;73.25;;;39.95;;
45041;SDS011;30779;52.096;4.410;2023-02-15T00:32:47;68.13;;;41.22;;
45041;SDS011;30779;52.096;4.410;2023-02-15T00:35:55;69.80;;;40.67;;
45041;SDS011;30779;52.096;4.410;2023-02-15T00:38:56;69.25;;;41.33;;
45041;SDS011;30779;52.096;4.410;2023-02-15T00:41:57;64.05;;;37.42;;
45041;SDS011;30779;52.096;4.410;2023-02-15T00:44:58;67.28;;;37.92;;
45041;SDS011;30779;52.096;4.410;2023-02-15T00:47:59;57.80;;;36.20;;
45041;SDS011;30779;52.096;4.410;2023-02-15T00:51:00;55.65;;;35.63;;
45041;SDS011;30779;52.096;4.410;2023-02-15T00:54:02;59.58;;;33.83;;
45041;SDS011;30779;52.096;4.410;2023-02-15T00:57:03;55.10;;;35.30;;
45041;SDS011;30779;52.096;4.410;2023-02-15T01:00:04;59.85;;;34.83;;
45041;SDS011;30779;52.096;4.410;2023-02-15T01:03:05;53.75;;;32.85;;
45041;SDS011;30779;52.096;4.410;2023-02-15T01:06:06;56.65;;;32.63;;
45041;SDS011;30779;52.096;4.410;2023-02-15T01:09:08;53.83;;;34.15;;
45041;SDS011;30779;52.096;4.410;2023-02-15T01:12:09;47.65;;;30.40;;
45041;SDS011;30779;52.096;4.410;2023-02-15T01:15:10;48.97;;;30.98;;
45041;SDS011;30779;52.096;4.410;2023-02-15T01:18:11;53.03;;;33.60;;
45041;SDS011;30779;52.096;4.410;2023-02-15T01:21:13;53.33;;;32.90;;
45041;SDS011;30779;52.096;4.410;2023-02-15T01:24:15;55.45;;;33.65;;
45041;SDS011;30779;52.096;4.410;2023-02-15T01:27:16;55.15;;;33.42;;
45041;SDS011;30779;52.096;4.410;2023-02-15T01:30:17;55.08;;;34.67;;
45041;SDS011;30779;52.096;4.410;2023-02-15T01:33:18;57.00;;;33.22;;
45041;SDS011;30779;52.096;4.410;2023-02-15T01:36:19;61.72;;;35.70;;
45041;SDS011;30779;52.096;4.410;2023-02-15T01:39:20;56.42;;;33.95;;
45041;SDS011;30779;52.096;4.410;2023-02-15T01:42:22;51.97;;;32.22;;
45041;SDS011;30779;52.096;4.410;2023-02-15T01:45:31;59.90;;;35.03;;
45041;SDS011;30779;52.096;4.410;2023-02-15T01:48:32;66.40;;;36.70;;
45041;SDS011;30779;52.096;4.410;2023-02-15T01:51:33;65.75;;;35.80;;
45041;SDS011;30779;52.096;4.410;2023-02-15T01:54:35;69.68;;;38.17;;
45041;SDS011;30779;52.096;4.410;2023-02-15T01:57:38;57.72;;;33.85;;
45041;SDS011;30779;52.096;4.410;2023-02-15T02:00:39;62.47;;;35.63;;
45041;SDS011;30779;52.096;4.410;2023-02-15T02:07:01;60.75;;;35.10;;
45041;SDS011;30779;52.096;4.410;2023-02-15T02:10:03;74.95;;;39.33;;
45041;SDS011;30779;52.096;4.410;2023-02-15T02:13:05;66.07;;;36.72;;
45041;SDS011;30779;52.096;4.410;2023-02-15T02:26:38;53.05;;;33.55;;
45041;SDS011;30779;52.096;4.410;2023-02-15T02:45:05;47.97;;;30.33;;
45041;SDS011;30779;52.096;4.410;2023-02-15T02:48:12;54.55;;;30.40;;
45041;SDS011;30779;52.096;4.410;2023-02-15T02:51:14;45.53;;;28.80;;
45041;SDS011;30779;52.096;4.410;2023-02-15T02:54:21;47.70;;;29.95;;
45041;SDS011;30779;52.096;4.410;2023-02-15T02:57:22;44.42;;;29.67;;
45041;SDS011;30779;52.096;4.410;2023-02-15T03:00:24;39.90;;;28.40;;
45041;SDS011;30779;52.096;4.410;2023-02-15T03:03:30;39.40;;;27.50;;
45041;SDS011;30779;52.096;4.410;2023-02-15T03:06:38;39.95;;;28.63;;
45041;SDS011;30779;52.096;4.410;2023-02-15T03:09:42;42.70;;;28.67;;
45041;SDS011;30779;52.096;4.410;2023-02-15T03:12:43;43.03;;;27.55;;
45041;SDS011;30779;52.096;4.410;2023-02-15T03:15:45;40.67;;;27.42;;
45041;SDS011;30779;52.096;4.410;2023-02-15T03:19:07;40.03;;;28.15;;
45041;SDS011;30779;52.096;4.410;2023-02-15T03:22:13;39.38;;;25.80;;
45041;SDS011;30779;52.096;4.410;2023-02-15T03:25:17;35.95;;;26.27;;
45041;SDS011;30779;52.096;4.410;2023-02-15T03:28:20;37.50;;;27.17;;
45041;SDS011;30779;52.096;4.410;2023-02-15T03:34:24;37.50;;;24.85;;
45041;SDS011;30779;52.096;4.410;2023-02-15T03:37:27;39.22;;;26.23;;
45041;SDS011;30779;52.096;4.410;2023-02-15T03:40:32;37.90;;;26.55;;
45041;SDS011;30779;52.096;4.410;2023-02-15T03:43:58;35.83;;;25.70;;
45041;SDS011;30779;52.096;4.410;2023-02-15T03:50:03;34.35;;;24.33;;
45041;SDS011;30779;52.096;4.410;2023-02-15T03:56:26;35.00;;;24.45;;
45041;SDS011;30779;52.096;4.410;2023-02-15T03:59:28;29.73;;;23.00;;
45041;SDS011;30779;52.096;4.410;2023-02-15T04:06:03;34.97;;;25.92;;
45041;SDS011;30779;52.096;4.410;2023-02-15T04:09:05;41.65;;;26.77;;
45041;SDS011;30779;52.096;4.410;2023-02-15T04:12:24;38.42;;;25.83;;
45041;SDS011;30779;52.096;4.410;2023-02-15T04:15:25;47.22;;;28.90;;
45041;SDS011;30779;52.096;4.410;2023-02-15T04:18:45;37.45;;;24.58;;
45041;SDS011;30779;52.096;4.410;2023-02-15T04:22:04;39.10;;;25.80;;
45041;SDS011;30779;52.096;4.410;2023-02-15T04:25:24;42.13;;;25.45;;
45041;SDS011;30779;52.096;4.410;2023-02-15T04:28:25;36.88;;;25.35;;
45041;SDS011;30779;52.096;4.410;2023-02-15T04:31:26;38.75;;;26.70;;
45041;SDS011;30779;52.096;4.410;2023-02-15T04:34:27;34.88;;;25.25;;
45041;SDS011;30779;52.096;4.410;2023-02-15T04:37:28;39.70;;;26.45;;
45041;SDS011;30779;52.096;4.410;2023-02-15T04:40:29;49.00;;;26.77;;
45041;SDS011;30779;52.096;4.410;2023-02-15T04:43:31;36.83;;;24.83;;
45041;SDS011;30779;52.096;4.410;2023-02-15T04:46:32;40.78;;;27.00;;
45041;SDS011;30779;52.096;4.410;2023-02-15T04:49:33;41.05;;;25.48;;
45041;SDS011;30779;52.096;4.410;2023-02-15T04:52:34;41.33;;;25.38;;
45041;SDS011;30779;52.096;4.410;2023-02-15T04:55:35;36.95;;;26.08;;
45041;SDS011;30779;52.096;4.410;2023-02-15T04:58:36;42.08;;;26.40;;
45041;SDS011;30779;52.096;4.410;2023-02-15T05:01:40;43.08;;;27.25;;
45041;SDS011;30779;52.096;4.410;2023-02-15T05:04:42;39.28;;;26.50;;
45041;SDS011;30779;52.096;4.410;2023-02-15T05:07:43;45.35;;;27.38;;
45041;SDS011;30779;52.096;4.410;2023-02-15T05:10:44;42.95;;;28.13;;
45041;SDS011;30779;52.096;4.410;2023-02-15T05:13:45;44.03;;;25.52;;
45041;SDS011;30779;52.096;4.410;2023-02-15T05:16:46;38.00;;;26.38;;
45041;SDS011;30779;52.096;4.410;2023-02-15T05:19:47;41.95;;;27.00;;
45041;SDS011;30779;52.096;4.410;2023-02-15T05:22:48;40.67;;;25.73;;
45041;SDS011;30779;52.096;4.410;2023-02-15T05:25:49;44.10;;;26.52;;
45041;SDS011;30779;52.096;4.410;2023-02-15T05:29:10;44.28;;;26.67;;
45041;SDS011;30779;52.096;4.410;2023-02-15T05:32:12;41.95;;;27.35;;
45041;SDS011;30779;52.096;4.410;2023-02-15T05:35:14;40.03;;;26.95;;
45041;SDS011;30779;52.096;4.410;2023-02-15T05:38:15;44.75;;;26.40;;
45041;SDS011;30779;52.096;4.410;2023-02-15T05:41:16;39.63;;;27.10;;
45041;SDS011;30779;52.096;4.410;2023-02-15T05:44:17;49.30;;;30.08;;
45041;SDS011;30779;52.096;4.410;2023-02-15T05:47:18;54.95;;;32.63;;
45041;SDS011;30779;52.096;4.410;2023-02-15T05:50:19;49.95;;;30.85;;
45041;SDS011;30779;52.096;4.410;2023-02-15T05:53:21;51.25;;;29.95;;
45041;SDS011;30779;52.096;4.410;2023-02-15T05:56:22;45.80;;;29.25;;
45041;SDS011;30779;52.096;4.410;2023-02-15T05:59:23;50.85;;;30.77;;
45041;SDS011;30779;52.096;4.410;2023-02-15T06:02:24;49.60;;;29.52;;
45041;SDS011;30779;52.096;4.410;2023-02-15T06:05:25;49.05;;;30.35;;
45041;SDS011;30779;52.096;4.410;2023-02-15T06:08:26;51.42;;;31.15;;
45041;SDS011;30779;52.096;4.410;2023-02-15T06:11:27;58.22;;;34.20;;
45041;SDS011;30779;52.096;4.410;2023-02-15T06:14:28;62.50;;;34.22;;
45041;SDS011;30779;52.096;4.410;2023-02-15T06:17:29;57.00;;;32.88;;
45041;SDS011;30779;52.096;4.410;2023-02-15T06:20:30;54.03;;;31.20;;
45041;SDS011;30779;52.096;4.410;2023-02-15T06:23:31;59.70;;;33.92;;
45041;SDS011;30779;52.096;4.410;2023-02-15T06:26:32;60.53;;;34.28;;
45041;SDS011;30779;52.096;4.410;2023-02-15T06:29:33;62.53;;;36.38;;
45041;SDS011;30779;52.096;4.410;2023-02-15T06:32:34;63.38;;;35.63;;
45041;SDS011;30779;52.096;4.410;2023-02-15T06:35:35;66.22;;;36.78;;
45041;SDS011;30779;52.096;4.410;2023-02-15T06:38:36;75.50;;;37.38;;
45041;SDS011;30779;52.096;4.410;2023-02-15T06:41:38;72.00;;;39.28;;
45041;SDS011;30779;52.096;4.410;2023-02-15T06:44:39;67.03;;;35.65;;
45041;SDS011;30779;52.096;4.410;2023-02-15T06:47:40;62.97;;;35.10;;
45041;SDS011;30779;52.096;4.410;2023-02-15T06:50:41;65.53;;;34.88;;
45041;SDS011;30779;52.096;4.410;2023-02-15T06:53:42;61.00;;;34.53;;
45041;SDS011;30779;52.096;4.410;2023-02-15T06:56:43;63.33;;;37.80;;
45041;SDS011;30779;52.096;4.410;2023-02-15T06:59:45;68.57;;;37.55;;
45041;SDS011;30779;52.096;4.410;2023-02-15T07:02:46;66.88;;;36.38;;
45041;SDS011;30779;52.096;4.410;2023-02-15T07:05:47;67.18;;;35.78;;
45041;SDS011;30779;52.096;4.410;2023-02-15T07:08:48;71.05;;;36.35;;
45041;SDS011;30779;52.096;4.410;2023-02-15T07:11:49;70.68;;;37.63;;
45041;SDS011;30779;52.096;4.410;2023-02-15T07:15:12;65.65;;;35.85;;
45041;SDS011;30779;52.096;4.410;2023-02-15T07:18:14;62.00;;;34.75;;
45041;SDS011;30779;52.096;4.410;2023-02-15T07:21:15;67.75;;;36.83;;
45041;SDS011;30779;52.096;4.410;2023-02-15T07:24:16;65.68;;;38.20;;
45041;SDS011;30779;52.096;4.410;2023-02-15T07:27:17;72.65;;;38.20;;
45041;SDS011;30779;52.096;4.410;2023-02-15T07:30:18;71.25;;;37.03;;
45041;SDS011;30779;52.096;4.410;2023-02-15T07:33:19;65.85;;;36.50;;
45041;SDS011;30779;52.096;4.410;2023-02-15T07:36:23;68.28;;;37.13;;
45041;SDS011;30779;52.096;4.410;2023-02-15T07:39:24;65.18;;;35.70;;
45041;SDS011;30779;52.096;4.410;2023-02-15T07:42:25;65.22;;;37.22;;
45041;SDS011;30779;52.096;4.410;2023-02-15T07:45:26;67.25;;;36.40;;
45041;SDS011;30779;52.096;4.410;2023-02-15T07:48:27;59.78;;;32.95;;
45041;SDS011;30779;52.096;4.410;2023-02-15T07:51:28;60.83;;;34.38;;
45041;SDS011;30779;52.096;4.410;2023-02-15T07:54:29;65.07;;;34.55;;
45041;SDS011;30779;52.096;4.410;2023-02-15T07:57:30;66.50;;;36.60;;
45041;SDS011;30779;52.096;4.410;2023-02-15T08:00:31;71.30;;;38.03;;
45041;SDS011;30779;52.096;4.410;2023-02-15T08:03:53;61.67;;;34.83;;
45041;SDS011;30779;52.096;4.410;2023-02-15T08:06:54;68.25;;;39.35;;
45041;SDS011;30779;52.096;4.410;2023-02-15T08:09:55;70.70;;;38.70;;
45041;SDS011;30779;52.096;4.410;2023-02-15T08:12:56;67.07;;;37.83;;
45041;SDS011;30779;52.096;4.410;2023-02-15T08:15:57;66.57;;;36.80;;
45041;SDS011;30779;52.096;4.410;2023-02-15T08:18:59;60.70;;;35.90;;
45041;SDS011;30779;52.096;4.410;2023-02-15T08:22:02;70.22;;;38.85;;
45041;SDS011;30779;52.096;4.410;2023-02-15T08:25:04;64.10;;;36.77;;
45041;SDS011;30779;52.096;4.410;2023-02-15T08:28:06;68.80;;;39.08;;
45041;SDS011;30779;52.096;4.410;2023-02-15T08:31:08;68.47;;;37.70;;
45041;SDS011;30779;52.096;4.410;2023-02-15T08:34:10;67.50;;;39.00;;
45041;SDS011;30779;52.096;4.410;2023-02-15T08:37:11;73.32;;;39.58;;
45041;SDS011;30779;52.096;4.410;2023-02-15T08:40:12;68.47;;;39.03;;
45041;SDS011;30779;52.096;4.410;2023-02-15T08:43:13;69.10;;;39.35;;
45041;SDS011;30779;52.096;4.410;2023-02-15T08:46:15;68.20;;;39.15;;
45041;SDS011;30779;52.096;4.410;2023-02-15T08:49:18;71.15;;;38.80;;
45041;SDS011;30779;52.096;4.410;2023-02-15T08:52:19;62.97;;;38.05;;
45041;SDS011;30779;52.096;4.410;2023-02-15T08:55:21;58.47;;;34.67;;
45041;SDS011;30779;52.096;4.410;2023-02-15T08:58:22;58.70;;;34.42;;
45041;SDS011;30779;52.096;4.410;2023-02-15T09:01:24;61.70;;;36.58;;
45041;SDS011;30779;52.096;4.410;2023-02-15T09:04:25;64.25;;;34.97;;
45041;SDS011;30779;52.096;4.410;2023-02-15T09:07:26;57.10;;;35.63;;
45041;SDS011;30779;52.096;4.410;2023-02-15T09:10:28;60.90;;;36.42;;
45041;SDS011;30779;52.096;4.410;2023-02-15T09:13:29;59.28;;;37.15;;
45041;SDS011;30779;52.096;4.410;2023-02-15T09:16:31;57.40;;;35.90;;
45041;SDS011;30779;52.096;4.410;2023-02-15T09:19:32;62.60;;;36.65;;
45041;SDS011;30779;52.096;4.410;2023-02-15T09:22:33;62.33;;;38.30;;
45041;SDS011;30779;52.096;4.410;2023-02-15T09:25:34;65.18;;;37.58;;
45041;SDS011;30779;52.096;4.410;2023-02-15T09:28:35;64.45;;;38.33;;
45041;SDS011;30779;52.096;4.410;2023-02-15T09:31:38;65.18;;;38.90;;
45041;SDS011;30779;52.096;4.410;2023-02-15T09:34:40;54.13;;;38.47;;
45041;SDS011;30779;52.096;4.410;2023-02-15T09:37:41;59.88;;;40.10;;
45041;SDS011;30779;52.096;4.410;2023-02-15T09:40:43;62.50;;;40.35;;
45041;SDS011;30779;52.096;4.410;2023-02-15T09:50:20;59.33;;;37.67;;
45041;SDS011;30779;52.096;4.410;2023-02-15T09:56:32;61.22;;;38.17;;
45041;SDS011;30779;52.096;4.410;2023-02-15T10:21:30;57.20;;;37.55;;
45041;SDS011;30779;52.096;4.410;2023-02-15T10:24:46;59.50;;;38.40;;
45041;SDS011;30779;52.096;4.410;2023-02-15T10:27:50;55.95;;;38.33;;
45041;SDS011;30779;52.096;4.410;2023-02-15T10:30:51;57.33;;;38.05;;
45041;SDS011;30779;52.096;4.410;2023-02-15T10:34:15;58.65;;;38.63;;
45041;SDS011;30779;52.096;4.410;2023-02-15T10:37:25;57.80;;;36.70;;
45041;SDS011;30779;52.096;4.410;2023-02-15T10:43:54;52.90;;;34.25;;
45041;SDS011;30779;52.096;4.410;2023-02-15T10:47:04;52.30;;;34.72;;
45041;SDS011;30779;52.096;4.410;2023-02-15T11:02:52;54.17;;;35.97;;
45041;SDS011;30779;52.096;4.410;2023-02-15T11:09:00;53.70;;;35.28;;
45041;SDS011;30779;52.096;4.410;2023-02-15T11:12:02;50.70;;;35.17;;
45041;SDS011;30779;52.096;4.410;2023-02-15T11:15:18;51.45;;;34.45;;
45041;SDS011;30779;52.096;4.410;2023-02-15T11:21:26;52.25;;;34.90;;
45041;SDS011;30779;52.096;4.410;2023-02-15T11:24:29;49.55;;;32.67;;
45041;SDS011;30779;52.096;4.410;2023-02-15T11:27:31;51.03;;;33.60;;
45041;SDS011;30779;52.096;4.410;2023-02-15T11:30:38;51.85;;;34.55;;
45041;SDS011;30779;52.096;4.410;2023-02-15T11:33:42;49.08;;;32.70;;
45041;SDS011;30779;52.096;4.410;2023-02-15T11:36:44;53.92;;;33.30;;
45041;SDS011;30779;52.096;4.410;2023-02-15T11:39:47;49.03;;;32.77;;
45041;SDS011;30779;52.096;4.410;2023-02-15T11:42:52;47.72;;;31.58;;
45041;SDS011;30779;52.096;4.410;2023-02-15T11:45:54;46.78;;;31.90;;
45041;SDS011;30779;52.096;4.410;2023-02-15T11:48:55;51.67;;;30.45;;
45041;SDS011;30779;52.096;4.410;2023-02-15T11:51:58;47.47;;;30.23;;
45041;SDS011;30779;52.096;4.410;2023-02-15T11:55:01;43.83;;;29.88;;
45041;SDS011;30779;52.096;4.410;2023-02-15T12:04:32;47.50;;;31.58;;
45041;SDS011;30779;52.096;4.410;2023-02-15T12:07:42;47.13;;;32.03;;
45041;SDS011;30779;52.096;4.410;2023-02-15T12:11:00;49.10;;;31.98;;
45041;SDS011;30779;52.096;4.410;2023-02-15T12:14:08;43.83;;;31.77;;
45041;SDS011;30779;52.096;4.410;2023-02-15T12:17:12;44.25;;;30.63;;
45041;SDS011;30779;52.096;4.410;2023-02-15T12:23:15;40.55;;;30.05;;
45041;SDS011;30779;52.096;4.410;2023-02-15T12:26:32;46.15;;;32.20;;
45041;SDS011;30779;52.096;4.410;2023-02-15T12:29:35;45.67;;;31.70;;
45041;SDS011;30779;52.096;4.410;2023-02-15T12:32:50;44.63;;;31.02;;
45041;SDS011;30779;52.096;4.410;2023-02-15T12:36:00;44.67;;;29.98;;
45041;SDS011;30779;52.096;4.410;2023-02-15T12:42:05;48.03;;;30.50;;
45041;SDS011;30779;52.096;4.410;2023-02-15T12:48:21;47.63;;;30.95;;
45041;SDS011;30779;52.096;4.410;2023-02-15T12:51:22;46.00;;;28.85;;
45041;SDS011;30779;52.096;4.410;2023-02-15T12:54:36;46.70;;;29.92;;
45041;SDS011;30779;52.096;4.410;2023-02-15T12:57:41;54.22;;;31.65;;
45041;SDS011;30779;52.096;4.410;2023-02-15T13:00:43;41.92;;;29.35;;
45041;SDS011;30779;52.096;4.410;2023-02-15T13:07:04;46.38;;;30.52;;
45041;SDS011;30779;52.096;4.410;2023-02-15T13:10:05;56.00;;;35.22;;
45041;SDS011;30779;52.096;4.410;2023-02-15T13:13:19;64.70;;;38.63;;
45041;SDS011;30779;52.096;4.410;2023-02-15T13:16:26;46.83;;;32.00;;
45041;SDS011;30779;52.096;4.410;2023-02-15T13:19:33;60.45;;;40.30;;
45041;SDS011;30779;52.096;4.410;2023-02-15T13:22:39;100.93;;;61.33;;
45041;SDS011;30779;52.096;4.410;2023-02-15T13:25:45;57.78;;;34.65;;
45041;SDS011;30779;52.096;4.410;2023-02-15T13:28:54;48.22;;;33.40;;
45041;SDS011;30779;52.096;4.410;2023-02-15T13:31:56;50.95;;;34.22;;
45041;SDS011;30779;52.096;4.410;2023-02-15T13:34:59;47.53;;;32.22;;
45041;SDS011;30779;52.096;4.410;2023-02-15T13:38:02;49.85;;;34.00;;
45041;SDS011;30779;52.096;4.410;2023-02-15T13:41:09;61.45;;;41.45;;
45041;SDS011;30779;52.096;4.410;2023-02-15T13:44:16;56.70;;;37.65;;
45041;SDS011;30779;52.096;4.410;2023-02-15T13:47:21;50.40;;;34.00;;
45041;SDS011;30779;52.096;4.410;2023-02-15T13:50:30;48.97;;;34.42;;
45041;SDS011;30779;52.096;4.410;2023-02-15T14:03:27;62.78;;;39.88;;
45041;SDS011;30779;52.096;4.410;2023-02-15T14:19:39;52.78;;;33.45;;
45041;SDS011;30779;52.096;4.410;2023-02-15T14:22:42;49.47;;;32.67;;
45041;SDS011;30779;52.096;4.410;2023-02-15T14:25:47;50.50;;;32.83;;
45041;SDS011;30779;52.096;4.410;2023-02-15T14:32:18;45.30;;;29.05;;
45041;SDS011;30779;52.096;4.410;2023-02-15T14:35:21;44.00;;;29.92;;
45041;SDS011;30779;52.096;4.410;2023-02-15T14:44:36;43.85;;;28.15;;
45041;SDS011;30779;52.096;4.410;2023-02-15T14:47:40;45.47;;;27.95;;
45041;SDS011;30779;52.096;4.410;2023-02-15T14:50:44;93.03;;;55.03;;
45041;SDS011;30779;52.096;4.410;2023-02-15T14:53:45;47.13;;;31.27;;
45041;SDS011;30779;52.096;4.410;2023-02-15T14:57:32;47.78;;;32.30;;
45041;SDS011;30779;52.096;4.410;2023-02-15T15:00:28;47.85;;;29.30;;
45041;SDS011;30779;52.096;4.410;2023-02-15T15:03:31;63.08;;;39.22;;
45041;SDS011;30779;52.096;4.410;2023-02-15T15:06:33;50.38;;;31.20;;
45041;SDS011;30779;52.096;4.410;2023-02-15T15:09:41;58.53;;;36.72;;
45041;SDS011;30779;52.096;4.410;2023-02-15T15:12:50;43.65;;;30.40;;
45041;SDS011;30779;52.096;4.410;2023-02-15T15:15:52;44.78;;;30.35;;
45041;SDS011;30779;52.096;4.410;2023-02-15T15:18:53;41.97;;;28.88;;
45041;SDS011;30779;52.096;4.410;2023-02-15T15:21:56;45.28;;;29.88;;
45041;SDS011;30779;52.096;4.410;2023-02-15T15:24:58;48.65;;;30.88;;
45041;SDS011;30779;52.096;4.410;2023-02-15T15:28:00;63.83;;;41.00;;
45041;SDS011;30779;52.096;4.410;2023-02-15T15:49:54;45.10;;;30.88;;
45041;SDS011;30779;52.096;4.410;2023-02-15T15:52:57;45.78;;;29.23;;
45041;SDS011;30779;52.096;4.410;2023-02-15T15:56:00;43.47;;;29.90;;
45041;SDS011;30779;52.096;4.410;2023-02-15T15:59:05;47.92;;;29.42;;
45041;SDS011;30779;52.096;4.410;2023-02-15T16:02:10;47.08;;;29.83;;
45041;SDS011;30779;52.096;4.410;2023-02-15T16:05:12;49.58;;;30.83;;
45041;SDS011;30779;52.096;4.410;2023-02-15T16:08:13;49.70;;;29.77;;
45041;SDS011;30779;52.096;4.410;2023-02-15T16:11:16;55.13;;;35.58;;
45041;SDS011;30779;52.096;4.410;2023-02-15T16:14:28;45.63;;;29.80;;
45041;SDS011;30779;52.096;4.410;2023-02-15T16:17:30;42.00;;;27.85;;
45041;SDS011;30779;52.096;4.410;2023-02-15T16:20:34;48.67;;;30.85;;
45041;SDS011;30779;52.096;4.410;2023-02-15T16:29:48;43.15;;;28.05;;
45041;SDS011;30779;52.096;4.410;2023-02-15T16:32:52;48.60;;;30.88;;
45041;SDS011;30779;52.096;4.410;2023-02-15T16:35:55;44.20;;;28.65;;
45041;SDS011;30779;52.096;4.410;2023-02-15T16:41:57;43.40;;;29.23;;
45041;SDS011;30779;52.096;4.410;2023-02-15T16:45:23;43.92;;;29.13;;
45041;SDS011;30779;52.096;4.410;2023-02-15T16:48:23;50.75;;;30.10;;
45041;SDS011;30779;52.096;4.410;2023-02-15T16:51:26;50.80;;;31.65;;
45041;SDS011;30779;52.096;4.410;2023-02-15T16:54:28;44.05;;;29.23;;
45041;SDS011;30779;52.096;4.410;2023-02-15T16:57:35;47.33;;;29.63;;
45041;SDS011;30779;52.096;4.410;2023-02-15T17:00:36;47.92;;;30.75;;
45041;SDS011;30779;52.096;4.410;2023-02-15T17:03:41;51.05;;;33.10;;
45041;SDS011;30779;52.096;4.410;2023-02-15T17:06:43;50.20;;;31.38;;
45041;SDS011;30779;52.096;4.410;2023-02-15T17:09:57;45.30;;;29.70;;
45041;SDS011;30779;52.096;4.410;2023-02-15T17:13:03;45.63;;;29.48;;
45041;SDS011;30779;52.096;4.410;2023-02-15T17:19:09;50.25;;;31.15;;
45041;SDS011;30779;52.096;4.410;2023-02-15T17:22:17;53.47;;;32.40;;
45041;SDS011;30779;52.096;4.410;2023-02-15T17:25:33;49.35;;;32.25;;
45041;SDS011;30779;52.096;4.410;2023-02-15T17:28:35;51.97;;;33.65;;
45041;SDS011;30779;52.096;4.410;2023-02-15T17:31:37;48.55;;;32.42;;
45041;SDS011;30779;52.096;4.410;2023-02-15T17:37:43;54.42;;;32.50;;
45041;SDS011;30779;52.096;4.410;2023-02-15T17:43:47;54.55;;;33.95;;
45041;SDS011;30779;52.096;4.410;2023-02-15T17:46:48;51.30;;;32.80;;
45041;SDS011;30779;52.096;4.410;2023-02-15T17:49:49;46.85;;;29.42;;
45041;SDS011;30779;52.096;4.410;2023-02-15T17:52:51;51.35;;;30.90;;
45041;SDS011;30779;52.096;4.410;2023-02-15T17:55:52;51.20;;;29.73;;
45041;SDS011;30779;52.096;4.410;2023-02-15T17:58:53;46.13;;;28.90;;
45041;SDS011;30779;52.096;4.410;2023-02-15T18:01:55;44.58;;;28.33;;
45041;SDS011;30779;52.096;4.410;2023-02-15T18:05:14;47.58;;;30.10;;
45041;SDS011;30779;52.096;4.410;2023-02-15T18:08:33;47.55;;;33.05;;
45041;SDS011;30779;52.096;4.410;2023-02-15T18:11:53;45.22;;;28.88;;
45041;SDS011;30779;52.096;4.410;2023-02-15T18:14:55;43.92;;;29.17;;
45041;SDS011;30779;52.096;4.410;2023-02-15T18:17:56;48.58;;;29.67;;
45041;SDS011;30779;52.096;4.410;2023-02-15T18:20:57;41.42;;;30.17;;
45041;SDS011;30779;52.096;4.410;2023-02-15T18:23:58;47.38;;;29.83;;
45041;SDS011;30779;52.096;4.410;2023-02-15T18:26:59;47.75;;;31.25;;
45041;SDS011;30779;52.096;4.410;2023-02-15T18:30:00;56.63;;;34.65;;
45041;SDS011;30779;52.096;4.410;2023-02-15T18:33:02;43.75;;;27.60;;
45041;SDS011;30779;52.096;4.410;2023-02-15T18:36:03;42.40;;;26.48;;
45041;SDS011;30779;52.096;4.410;2023-02-15T18:39:11;38.97;;;26.08;;
45041;SDS011;30779;52.096;4.410;2023-02-15T18:45:23;41.97;;;27.95;;
45041;SDS011;30779;52.096;4.410;2023-02-15T18:48:24;42.28;;;27.40;;
45041;SDS011;30779;52.096;4.410;2023-02-15T18:51:25;45.45;;;26.55;;
45041;SDS011;30779;52.096;4.410;2023-02-15T18:54:26;44.15;;;27.48;;
45041;SDS011;30779;52.096;4.410;2023-02-15T18:57:27;39.65;;;26.80;;
45041;SDS011;30779;52.096;4.410;2023-02-15T19:00:30;44.35;;;27.73;;
45041;SDS011;30779;52.096;4.410;2023-02-15T19:03:32;41.57;;;28.00;;
45041;SDS011;30779;52.096;4.410;2023-02-15T19:06:33;45.55;;;28.80;;
45041;SDS011;30779;52.096;4.410;2023-02-15T19:09:34;42.92;;;27.67;;
45041;SDS011;30779;52.096;4.410;2023-02-15T19:12:35;44.17;;;28.38;;
45041;SDS011;30779;52.096;4.410;2023-02-15T19:15:36;42.80;;;27.90;;
45041;SDS011;30779;52.096;4.410;2023-02-15T19:18:37;39.80;;;24.92;;
45041;SDS011;30779;52.096;4.410;2023-02-15T19:21:38;44.97;;;28.33;;
45041;SDS011;30779;52.096;4.410;2023-02-15T19:24:39;45.17;;;27.00;;
45041;SDS011;30779;52.096;4.410;2023-02-15T19:27:42;39.08;;;25.55;;
45041;SDS011;30779;52.096;4.410;2023-02-15T19:30:45;45.40;;;27.88;;
45041;SDS011;30779;52.096;4.410;2023-02-15T19:33:46;42.05;;;25.65;;
45041;SDS011;30779;52.096;4.410;2023-02-15T19:36:48;45.13;;;27.55;;
45041;SDS011;30779;52.096;4.410;2023-02-15T19:39:50;41.60;;;25.83;;
45041;SDS011;30779;52.096;4.410;2023-02-15T19:42:51;40.13;;;26.40;;
45041;SDS011;30779;52.096;4.410;2023-02-15T19:45:53;43.65;;;26.83;;
45041;SDS011;30779;52.096;4.410;2023-02-15T19:48:54;44.15;;;27.65;;
45041;SDS011;30779;52.096;4.410;2023-02-15T19:51:55;45.83;;;28.55;;
45041;SDS011;30779;52.096;4.410;2023-02-15T19:54:56;47.28;;;28.23;;
45041;SDS011;30779;52.096;4.410;2023-02-15T19:57:57;41.17;;;28.50;;
45041;SDS011;30779;52.096;4.410;2023-02-15T20:00:59;47.05;;;28.27;;
45041;SDS011;30779;52.096;4.410;2023-02-15T20:04:01;46.28;;;29.33;;
45041;SDS011;30779;52.096;4.410;2023-02-15T20:07:02;45.88;;;26.08;;
45041;SDS011;30779;52.096;4.410;2023-02-15T20:10:17;50.08;;;29.13;;
45041;SDS011;30779;52.096;4.410;2023-02-15T20:13:19;42.17;;;27.63;;
45041;SDS011;30779;52.096;4.410;2023-02-15T20:16:20;43.85;;;26.63;;
45041;SDS011;30779;52.096;4.410;2023-02-15T20:19:21;44.58;;;29.33;;
45041;SDS011;30779;52.096;4.410;2023-02-15T20:22:23;45.08;;;29.05;;
45041;SDS011;30779;52.096;4.410;2023-02-15T20:25:26;48.00;;;29.63;;
45041;SDS011;30779;52.096;4.410;2023-02-15T20:28:28;49.75;;;27.58;;
45041;SDS011;30779;52.096;4.410;2023-02-15T20:31:29;44.28;;;26.88;;
45041;SDS011;30779;52.096;4.410;2023-02-15T20:34:31;48.00;;;29.05;;
45041;SDS011;30779;52.096;4.410;2023-02-15T20:37:32;43.25;;;28.55;;
45041;SDS011;30779;52.096;4.410;2023-02-15T20:40:33;48.05;;;30.58;;
45041;SDS011;30779;52.096;4.410;2023-02-15T20:43:35;47.30;;;28.00;;
45041;SDS011;30779;52.096;4.410;2023-02-15T20:46:36;45.30;;;27.92;;
45041;SDS011;30779;52.096;4.410;2023-02-15T20:49:37;45.22;;;29.00;;
45041;SDS011;30779;52.096;4.410;2023-02-15T20:52:38;42.97;;;28.10;;
45041;SDS011;30779;52.096;4.410;2023-02-15T20:55:39;46.17;;;31.45;;
45041;SDS011;30779;52.096;4.410;2023-02-15T20:58:40;47.75;;;30.88;;
45041;SDS011;30779;52.096;4.410;2023-02-15T21:01:41;44.20;;;27.92;;